Aeroporto :
LOGIN :

Iscrizione | Disclaimer

   EN    FR    IT 

 










Sommario :    VFR   VFR Marginale   IFR   IFR Intensivo   IFR Molto Intensivo
Visibilità : 
Base nubi : 
>= 8 km
>= 3000ft
5 / 8 km
1000 / 3000 ft
1500m / 5 km
500 / 1000 ft
800 / 1500m
200 / 500 ft
< 800m
< 200 ft
Simboli :   Temporali  Nebbia  Neve Forte  Precipitazioni Forti  Vento > 20 kt
SIGMETs :   Varie  Temporali  Ghiacco  Turbolenza  Onda orograficha  Ceneri Vulcaniche






- Altitudine del aeroporto : 436 ft
- Codice IATA : BTS


LZIB - Bratislava

ULTIMO METAR :
  • 042030Z 20011G21KT CAVOK 19/11 Q0995

METARs OBSOLETI :
  • 042001Z 20016G27KT CAVOK 19/11 Q0995
  • 041930Z 20014KT CAVOK 19/11 Q0995
  • 041900Z 20016KT CAVOK 20/11 Q0995
  • 041830Z 18017KT CAVOK 20/11 Q0995
  • 041800Z 19015KT CAVOK 21/11 Q0995 NOSIG

TAF TAF LZIB
Valido dal 04 a 18 ore il 05 a 18 ore UTC


041700Z 0418/0518 18016KT CAVOK
TEMPO 0418/0503 20018G30KT
BECMG 0501/0503 9999 -RA SCT030 BKN050
TEMPO 0503/0507 16006KT 5000 SHRA BKN020 FEW030TCU
BECMG 0507/0509 28010KT
TEMPO 0507/0512 28020KT
BECMG 0516/0518 29004KT CAVOK



MetMap, La meteo Aeronautica in un colpo d'occhio ! - Copyright ORBIFLY Dicembre 2007 - Disclaimer

ORBIFLY MET'MAP TEAM :

Programmazione e sviluppo : Alexandra Zaïnal
Concezione : Baudouin d'Aumeries
Aiuto per la programmazione : Marc-Olivier Méhu
Supporto tecnico e logistico : Manuel Goepfert
Aiuto per la traduzione : Arnaldo La Scala

Contatto : metmap@orbifly.com




FONTI E CREDITI :

   NOAA